Time;durP1;ratioP1;P1;durP2;ratioP2;P2;SDS_P1;SDS_P2;PMS_P1;PMS_P2;Temp;Humidity;BMP_temperature;BMP_pressure;BME280_temperature;BME280_humidity;BME280_pressure;Samples;Min_cycle;Max_cycle;Signal;HPM_P1;HPM_P2
2023/08/08 00:01:09;;;;;;;6.65;2.53;;;;;;;16.12;65.74;99535.63;4973970;28;20051;-77
2023/08/08 00:03:35;;;;;;;5.00;2.25;;;;;;;16.12;65.75;99539.13;4974309;28;20117;-77
2023/08/08 00:06:02;;;;;;;3.10;2.42;;;;;;;16.12;65.77;99541.78;4974199;28;20050;-77
2023/08/08 00:08:29;;;;;;;3.95;2.78;;;;;;;16.14;65.80;99546.97;4967999;28;20122;-78
2023/08/08 00:10:56;;;;;;;3.60;2.60;;;;;;;16.11;65.78;99537.44;4955927;28;20307;-77
2023/08/08 00:13:22;;;;;;;3.17;2.35;;;;;;;16.12;65.80;99533.00;4956775;28;20113;-77
2023/08/08 00:15:49;;;;;;;4.25;2.53;;;;;;;16.10;65.69;99537.56;4973972;28;20476;-77
2023/08/08 00:18:15;;;;;;;3.38;2.22;;;;;;;16.09;65.89;99522.63;4971039;28;20105;-78
2023/08/08 00:20:42;;;;;;;4.57;2.80;;;;;;;16.08;66.02;99520.94;4973789;28;20512;-77
2023/08/08 00:23:09;;;;;;;4.65;2.78;;;;;;;16.07;65.98;99527.22;4973364;28;20051;-77
2023/08/08 00:25:37;;;;;;;5.88;3.10;;;;;;;16.06;66.11;99528.19;4973687;28;20058;-78
2023/08/08 00:28:03;;;;;;;8.23;3.42;;;;;;;16.06;66.21;99517.56;4972625;28;20415;-77
2023/08/08 00:30:30;;;;;;;6.97;3.42;;;;;;;16.05;66.44;99524.69;4973654;28;20126;-77
2023/08/08 00:32:56;;;;;;;3.80;2.80;;;;;;;16.05;66.59;99527.34;4973337;28;20195;-77
2023/08/08 00:35:23;;;;;;;5.03;3.00;;;;;;;16.05;66.70;99515.88;4955936;28;20080;-77
2023/08/08 00:37:49;;;;;;;4.50;3.22;;;;;;;16.06;66.95;99512.25;4972170;28;20428;-78
2023/08/08 00:40:16;;;;;;;7.78;3.78;;;;;;;16.07;66.92;99517.44;4973224;28;20459;-77
2023/08/08 00:42:43;;;;;;;4.63;3.00;;;;;;;16.08;67.05;99510.31;4973183;28;20113;-77
2023/08/08 00:45:09;;;;;;;5.25;2.97;;;;;;;16.08;67.25;99511.16;4973521;28;20047;-77
2023/08/08 00:47:36;;;;;;;7.38;3.20;;;;;;;16.10;67.26;99511.00;4972557;28;20101;-77
2023/08/08 00:50:04;;;;;;;3.80;2.90;;;;;;;16.10;67.27;99514.53;4973223;28;20050;-77
2023/08/08 00:52:31;;;;;;;6.68;3.15;;;;;;;16.12;67.25;99501.13;4955798;28;20097;-77
2023/08/08 00:54:58;;;;;;;4.72;2.88;;;;;;;16.12;67.08;99498.47;5069994;23;20136;-84
2023/08/08 00:57:27;;;;;;;3.72;3.10;;;;;;;16.13;67.38;99495.69;4956470;28;20051;-83
2023/08/08 00:59:53;;;;;;;4.80;3.08;;;;;;;16.14;67.04;99488.53;4973099;28;20420;-84
2023/08/08 01:02:20;;;;;;;6.43;3.60;;;;;;;16.15;67.36;99490.25;4972906;28;20062;-85
2023/08/08 01:04:47;;;;;;;7.47;3.28;;;;;;;16.16;67.36;99491.94;4972856;28;20093;-84
2023/08/08 01:07:28;;;;;;;7.30;3.05;;;;;;;16.10;67.32;99490.63;4972520;28;20109;-85
2023/08/08 01:10:04;;;;;;;6.47;2.90;;;;;;;16.16;67.38;99489.28;4955789;28;20056;-85
2023/08/08 01:12:31;;;;;;;6.93;3.13;;;;;;;16.17;67.68;99487.44;4972416;28;20501;-85
2023/08/08 01:14:57;;;;;;;4.30;3.08;;;;;;;16.16;67.33;99481.31;4955492;28;20051;-85
2023/08/08 01:17:25;;;;;;;6.80;3.75;;;;;;;16.17;67.61;99482.97;4972430;28;20501;-85
2023/08/08 01:19:52;;;;;;;9.60;3.22;;;;;;;16.16;67.64;99473.34;4972683;28;20133;-85
2023/08/08 01:22:29;;;;;;;4.90;3.00;;;;;;;16.14;67.79;99475.28;4972631;28;20102;-85
2023/08/08 01:24:56;;;;;;;7.47;3.10;;;;;;;16.17;67.69;99482.97;4953675;29;20055;-85
2023/08/08 01:27:23;;;;;;;5.10;3.20;;;;;;;16.18;67.65;99483.84;4936001;29;20047;-85
2023/08/08 01:29:49;;;;;;;6.35;3.05;;;;;;;16.17;67.76;99477.66;4953776;29;20135;-85
2023/08/08 01:32:16;;;;;;;5.85;3.50;;;;;;;16.16;67.71;99476.00;4953707;29;20051;-85
2023/08/08 01:34:43;;;;;;;6.30;3.22;;;;;;;16.17;67.95;99476.81;4953185;28;20050;-85
2023/08/08 01:37:35;;;;;;;4.28;3.10;;;;;;;16.12;68.26;99470.09;4975787;28;20054;-85
2023/08/08 01:40:04;;;;;;;7.45;3.25;;;;;;;16.17;68.07;99469.69;4992110;28;20054;-85
2023/08/08 01:42:32;;;;;;;3.50;2.63;;;;;;;16.17;67.95;99475.00;4992379;28;20062;-85
2023/08/08 01:44:59;;;;;;;7.28;3.17;;;;;;;16.19;68.18;99469.56;4957992;28;20282;-85
2023/08/08 01:47:29;;;;;;;6.38;3.35;;;;;;;16.17;68.15;99464.41;4971643;28;20422;-86
2023/08/08 01:49:56;;;;;;;6.38;3.00;;;;;;;16.19;68.03;99458.97;4972998;28;20134;-85
2023/08/08 01:52:22;;;;;;;5.40;2.97;;;;;;;16.19;68.33;99451.00;4972798;28;20489;-86
2023/08/08 01:54:49;;;;;;;4.53;2.90;;;;;;;16.19;68.17;99454.50;4954306;28;20062;-85
2023/08/08 01:57:16;;;;;;;6.80;2.67;;;;;;;16.19;68.24;99449.19;4972079;28;20509;-85
2023/08/08 01:59:45;;;;;;;3.97;2.75;;;;;;;16.19;68.19;99451.84;4972404;28;20101;-85
2023/08/08 02:02:11;;;;;;;4.57;2.95;;;;;;;16.19;68.04;99451.84;4972656;28;20051;-85
2023/08/08 02:04:39;;;;;;;4.55;2.70;;;;;;;16.19;68.26;99453.66;4955449;28;20078;-85
2023/08/08 02:07:05;;;;;;;5.07;2.83;;;;;;;16.19;68.34;99445.69;4972311;28;20092;-85
2023/08/08 02:09:32;;;;;;;3.88;2.67;;;;;;;16.18;68.48;99452.78;4972640;28;20059;-85
2023/08/08 02:11:58;;;;;;;4.18;2.38;;;;;;;16.18;68.16;99447.47;4972601;28;20141;-85
2023/08/08 02:14:25;;;;;;;7.35;2.80;;;;;;;16.17;68.36;99437.00;4972550;28;20513;-85
2023/08/08 02:16:52;;;;;;;5.47;2.78;;;;;;;16.17;68.29;99443.16;4955204;28;20138;-85
2023/08/08 02:19:18;;;;;;;8.82;2.78;;;;;;;16.17;68.30;99444.94;4972834;28;20051;-85
2023/08/08 02:21:45;;;;;;;7.65;2.83;;;;;;;16.18;68.37;99442.16;4972641;28;20133;-84
2023/08/08 02:24:11;;;;;;;4.07;2.45;;;;;;;16.19;68.69;99443.88;4972777;28;20062;-84
2023/08/08 02:26:38;;;;;;;9.70;3.20;;;;;;;16.20;68.54;99429.63;4955359;28;20063;-85
2023/08/08 02:29:05;;;;;;;5.05;2.90;;;;;;;16.22;68.58;99437.47;4973472;28;20493;-85
2023/08/08 02:31:31;;;;;;;4.60;2.72;;;;;;;16.23;68.49;99439.94;4973493;28;20078;-84
2023/08/08 02:33:58;;;;;;;6.53;2.72;;;;;;;16.23;68.75;99439.94;4956745;28;20051;-84
2023/08/08 02:39:12;;;;;;;5.93;2.72;;;;;;;16.25;68.65;99432.72;4953932;29;20106;-84
2023/08/08 02:41:38;;;;;;;6.28;3.42;;;;;;;16.25;68.56;99437.16;4938376;28;20082;-85
2023/08/08 02:44:05;;;;;;;4.53;2.78;;;;;;;16.24;68.53;99441.66;4954915;28;20050;-84
2023/08/08 02:46:31;;;;;;;4.57;3.13;;;;;;;16.24;68.67;99430.19;4971417;28;20556;-85
2023/08/08 02:48:58;;;;;;;8.43;3.28;;;;;;;16.24;68.78;99432.84;4972239;28;20051;-85
2023/08/08 02:51:24;;;;;;;4.43;3.30;;;;;;;16.23;68.95;99433.81;4955159;28;20064;-85
2023/08/08 02:53:51;;;;;;;7.60;3.88;;;;;;;16.23;68.91;99428.50;4955191;28;20145;-85
2023/08/08 02:56:18;;;;;;;6.20;3.85;;;;;;;16.23;68.89;99428.50;4972227;28;20137;-85
2023/08/08 02:58:44;;;;;;;5.20;3.47;;;;;;;16.23;68.91;99424.03;4957047;28;20043;-84
2023/08/08 03:01:13;;;;;;;5.63;3.72;;;;;;;16.23;68.86;99421.38;4972277;28;20086;-84
2023/08/08 03:03:40;;;;;;;7.22;4.07;;;;;;;16.24;68.86;99424.88;4971965;28;20058;-84
2023/08/08 03:06:06;;;;;;;7.32;3.92;;;;;;;16.23;68.86;99423.19;4972968;28;20559;-85
2023/08/08 03:08:33;;;;;;;6.40;3.78;;;;;;;16.23;68.86;99426.69;4958192;28;20474;-84
2023/08/08 03:11:00;;;;;;;5.93;4.03;;;;;;;16.23;69.02;99420.53;4958361;28;20051;-85
2023/08/08 03:13:27;;;;;;;6.93;3.88;;;;;;;16.23;69.03;99412.56;4958693;28;20054;-85
2023/08/08 03:15:53;;;;;;;7.07;4.82;;;;;;;16.23;69.10;99408.09;4975651;28;20081;-85
2023/08/08 03:18:22;;;;;;;11.02;5.45;;;;;;;16.24;69.08;99415.09;4958139;28;20053;-84
2023/08/08 03:20:57;;;;;;;7.28;4.43;;;;;;;16.25;69.28;99410.63;4978456;28;20461;-85
2023/08/08 03:23:39;;;;;;;8.27;4.32;;;;;;;16.26;69.33;99407.84;4976425;28;20058;-85
2023/08/08 03:26:07;;;;;;;9.48;4.80;;;;;;;16.26;69.50;99407.84;4960783;28;20057;-85
2023/08/08 03:28:35;;;;;;;7.88;4.72;;;;;;;16.26;69.38;99402.53;4978555;28;20058;-85
2023/08/08 03:31:03;;;;;;;7.30;4.70;;;;;;;16.28;69.45;99408.56;4979361;28;20054;-85
2023/08/08 03:33:43;;;;;;;9.25;5.07;;;;;;;16.24;69.73;99401.81;4960622;28;20136;-84
2023/08/08 03:36:44;;;;;;;;;;;;;;;;;;;;;
2023/08/08 03:39:22;;;;;;;8.43;5.43;;;;;;;16.30;69.67;99392.50;4979000;28;20517;-85
2023/08/08 03:41:49;;;;;;;9.15;5.32;;;;;;;16.30;69.74;99386.31;4979556;28;20078;-85
2023/08/08 03:44:17;;;;;;;10.13;5.88;;;;;;;16.29;69.73;99388.13;4977155;28;20054;-85
2023/08/08 03:46:44;;;;;;;10.23;4.93;;;;;;;16.30;69.88;99391.63;4961368;28;20058;-85
2023/08/08 03:50:32;;;;;;;12.20;5.57;;;;;;;16.27;69.99;99403.38;4965191;28;20057;-85
2023/08/08 03:53:05;;;;;;;9.48;4.53;;;;;;;16.33;69.98;99391.38;4948811;29;20075;-84
2023/08/08 03:55:42;;;;;;;9.18;4.85;;;;;;;16.31;70.07;99388.00;4941764;29;20486;-85
2023/08/08 03:58:09;;;;;;;6.65;4.88;;;;;;;16.31;70.06;99383.53;4957799;28;20138;-85
2023/08/08 04:00:45;;;;;;;9.43;5.63;;;;;;;16.32;70.23;99385.22;4960114;28;20086;-85
2023/08/08 04:03:18;;;;;;;13.50;5.20;;;;;;;16.31;70.27;99377.38;4977265;28;20078;-85
2023/08/08 04:06:17;;;;;;;11.07;6.00;;;;;;;16.29;70.53;99380.16;4959424;28;20059;-84
2023/08/08 04:09:09;;;;;;;8.57;5.55;;;;;;;16.30;70.38;99381.88;4971084;28;20509;-85
2023/08/08 04:11:45;;;;;;;11.95;4.95;;;;;;;16.35;70.39;99368.16;4959499;28;20529;-85
2023/08/08 04:14:11;;;;;;;9.15;5.93;;;;;;;16.35;70.37;99368.16;4956462;28;20126;-85
2023/08/08 04:16:38;;;;;;;11.05;5.93;;;;;;;16.36;70.51;99373.34;4974036;28;20313;-85
2023/08/08 04:19:05;;;;;;;10.63;6.32;;;;;;;16.36;70.61;99364.53;4975130;28;20050;-85
2023/08/08 04:21:32;;;;;;;10.55;6.80;;;;;;;16.36;70.59;99375.16;4957990;28;20055;-84
2023/08/08 04:23:59;;;;;;;8.48;5.80;;;;;;;16.36;70.76;99375.16;4971833;28;20065;-85
2023/08/08 04:26:26;;;;;;;14.02;6.53;;;;;;;16.35;70.92;99371.66;4948508;28;20082;-85
2023/08/08 04:28:53;;;;;;;9.15;5.50;;;;;;;16.37;70.64;99384.81;4941563;29;20063;-85
2023/08/08 04:31:19;;;;;;;10.00;6.22;;;;;;;16.36;70.66;99377.81;4955046;29;20137;-85
2023/08/08 04:33:46;;;;;;;7.53;5.63;;;;;;;16.35;70.86;99374.31;4962299;28;20581;-85
2023/08/08 04:36:12;;;;;;;7.65;5.85;;;;;;;16.36;71.05;99376.00;4974634;28;20062;-85
2023/08/08 04:38:39;;;;;;;9.50;5.90;;;;;;;16.37;71.12;99379.50;4974906;28;20055;-84
2023/08/08 04:41:05;;;;;;;10.73;5.97;;;;;;;16.37;70.92;99379.50;4975071;28;20055;-84
2023/08/08 04:43:32;;;;;;;14.32;6.25;;;;;;;16.38;71.02;99373.22;4956882;28;20062;-85
2023/08/08 04:45:58;;;;;;;10.57;5.93;;;;;;;16.37;71.13;99376.84;4957534;28;20452;-85
2023/08/08 04:48:25;;;;;;;13.15;6.22;;;;;;;16.36;71.00;99388.44;4975541;28;20054;-85
2023/08/08 04:50:52;;;;;;;9.00;5.70;;;;;;;16.38;70.85;99378.53;4957563;28;20497;-84
2023/08/08 04:53:18;;;;;;;12.50;6.05;;;;;;;16.36;70.85;99368.03;4954046;29;20071;-84
2023/08/08 04:55:45;;;;;;;9.90;5.80;;;;;;;16.36;70.97;99372.50;4957509;28;20086;-87
2023/08/08 04:58:14;;;;;;;8.85;5.63;;;;;;;16.34;71.07;99372.63;4955019;28;20055;-88
2023/08/08 05:00:50;;;;;;;10.23;5.93;;;;;;;16.33;71.13;99367.47;4952970;28;20054;-89
2023/08/08 05:03:19;;;;;;;8.18;5.32;;;;;;;16.34;71.07;99372.63;4950176;28;20113;-89
2023/08/08 05:06:10;;;;;;;16.95;6.22;;;;;;;16.31;71.17;99366.75;4966429;28;20054;-87
2023/08/08 05:08:37;;;;;;;10.82;5.57;;;;;;;16.36;71.22;99364.53;4956777;28;20086;-87
2023/08/08 05:11:03;;;;;;;9.80;5.60;;;;;;;16.36;71.38;99367.19;4955990;28;20493;-87
2023/08/08 05:13:30;;;;;;;12.57;6.05;;;;;;;16.37;71.44;99368.88;4974794;28;20090;-87
2023/08/08 05:15:57;;;;;;;7.68;5.03;;;;;;;16.37;71.69;99361.75;4957642;28;20145;-87
2023/08/08 05:18:23;;;;;;;14.77;6.07;;;;;;;16.40;71.76;99364.13;4957415;28;20055;-86
2023/08/08 05:20:50;;;;;;;10.02;5.55;;;;;;;16.42;71.73;99353.38;4956963;28;20082;-87
2023/08/08 05:23:16;;;;;;;8.00;5.28;;;;;;;16.48;71.79;99370.59;4974493;28;20090;-86
2023/08/08 05:25:43;;;;;;;11.55;5.90;;;;;;;16.51;71.82;99363.19;4957335;28;20093;-87
2023/08/08 05:28:09;;;;;;;8.65;4.95;;;;;;;16.55;72.09;99361.09;4956587;28;20059;-87
2023/08/08 05:30:36;;;;;;;9.45;4.55;;;;;;;16.60;71.88;99361.50;4973711;28;20552;-87
2023/08/08 05:33:03;;;;;;;12.55;5.65;;;;;;;16.65;71.73;99358.47;4955850;28;20057;-87
2023/08/08 05:35:30;;;;;;;10.90;6.00;;;;;;;16.67;71.54;99362.66;4957470;28;20062;-87
2023/08/08 05:37:56;;;;;;;11.30;5.30;;;;;;;16.71;71.57;99362.38;4974577;28;20138;-87
2023/08/08 05:40:23;;;;;;;10.20;5.40;;;;;;;16.73;71.38;99361.28;4956659;28;20074;-87
2023/08/08 05:42:49;;;;;;;11.73;5.20;;;;;;;16.77;71.18;99353.84;4957068;28;20109;-87
2023/08/08 05:45:16;;;;;;;11.80;5.38;;;;;;;16.79;71.24;99355.41;4966275;28;20058;-88
2023/08/08 05:47:43;;;;;;;13.80;4.88;;;;;;;16.82;71.34;99354.28;4973745;28;20086;-87
2023/08/08 05:50:09;;;;;;;11.25;5.30;;;;;;;16.85;71.23;99358.50;4956441;28;20497;-87
2023/08/08 05:52:36;;;;;;;15.60;5.70;;;;;;;16.89;71.09;99351.91;4957092;28;20147;-88
2023/08/08 05:55:03;;;;;;;9.85;4.82;;;;;;;16.90;71.22;99354.44;4956917;28;20083;-87
2023/08/08 05:57:30;;;;;;;7.47;3.97;;;;;;;16.94;71.33;99357.66;4973878;28;20054;-88
2023/08/08 05:59:57;;;;;;;9.02;4.60;;;;;;;16.96;71.10;99354.88;4965791;28;20075;-87
2023/08/08 06:02:23;;;;;;;8.18;4.82;;;;;;;16.96;70.95;99353.03;4956465;28;20051;-87
2023/08/08 06:04:50;;;;;;;17.15;4.53;;;;;;;16.99;70.89;99363.41;4956759;28;20059;-87
2023/08/08 06:07:16;;;;;;;11.23;4.22;;;;;;;17.00;70.87;99364.22;4953237;28;20517;-88
2023/08/08 06:09:43;;;;;;;8.45;4.68;;;;;;;17.01;70.71;99360.59;4969124;28;20081;-89
2023/08/08 06:12:09;;;;;;;7.43;4.28;;;;;;;17.03;70.86;99354.16;4973320;28;20059;-87
2023/08/08 06:14:36;;;;;;;12.02;4.57;;;;;;;17.05;70.84;99360.22;4956351;28;20157;-87
2023/08/08 06:17:03;;;;;;;11.85;3.95;;;;;;;17.08;71.14;99356.44;4938296;29;20055;-88
2023/08/08 06:19:29;;;;;;;9.88;3.70;;;;;;;17.14;70.86;99355.03;4937250;29;20051;-87
2023/08/08 06:21:59;;;;;;;6.60;3.90;;;;;;;17.18;70.29;99364.41;4944333;28;20043;-87
2023/08/08 06:24:26;;;;;;;12.45;3.85;;;;;;;17.24;70.58;99363.88;4973720;28;20110;-88
2023/08/08 06:26:52;;;;;;;8.93;4.22;;;;;;;17.28;70.39;99367.94;4973721;28;20402;-88
2023/08/08 06:29:19;;;;;;;9.65;4.07;;;;;;;17.33;70.64;99359.50;4956774;28;20054;-88
2023/08/08 06:31:46;;;;;;;8.00;4.03;;;;;;;17.39;70.60;99360.75;4973991;28;20055;-87
2023/08/08 06:34:12;;;;;;;7.57;3.72;;;;;;;17.44;70.63;99355.84;4956897;28;20066;-87
2023/08/08 06:36:39;;;;;;;7.15;3.80;;;;;;;17.50;70.43;99363.28;4973261;28;20097;-88
2023/08/08 06:39:05;;;;;;;6.45;4.00;;;;;;;17.56;70.41;99356.53;4973944;28;20047;-88
2023/08/08 06:41:32;;;;;;;8.55;3.78;;;;;;;17.60;70.22;99368.56;4959539;28;20146;-89
2023/08/08 06:43:59;;;;;;;7.95;4.13;;;;;;;17.66;70.16;99372.50;4959981;28;20497;-88
2023/08/08 06:46:25;;;;;;;6.15;3.50;;;;;;;17.72;69.85;99377.25;4976962;28;20472;-89
2023/08/08 06:48:56;;;;;;;9.10;3.55;;;;;;;17.78;70.39;99374.00;4960236;28;20489;-86
2023/08/08 06:51:24;;;;;;;7.45;4.05;;;;;;;17.84;69.62;99380.59;4975524;28;20051;-87
2023/08/08 06:56:27;;;;;;;8.85;3.90;;;;;;;17.91;69.01;99388.84;5054813;23;20058;-76
2023/08/08 06:58:53;;;;;;;7.32;3.65;;;;;;;17.90;68.83;99380.00;4976071;28;20050;-74
2023/08/08 07:01:20;;;;;;;7.95;3.10;;;;;;;17.90;68.73;99392.47;4975523;28;20055;-77
2023/08/08 07:03:47;;;;;;;7.65;3.30;;;;;;;17.90;69.08;99387.16;4975785;28;20047;-76
2023/08/08 07:06:15;;;;;;;10.57;4.07;;;;;;;17.92;69.73;99394.00;4975624;28;20064;-78
2023/08/08 07:08:41;;;;;;;8.65;3.67;;;;;;;17.94;69.34;99383.22;4975500;28;20082;-77
2023/08/08 07:11:08;;;;;;;12.05;4.18;;;;;;;17.96;69.07;99391.88;4958357;28;20146;-75
2023/08/08 07:13:34;;;;;;;9.18;3.88;;;;;;;17.97;69.34;99386.44;4958256;28;20157;-75
2023/08/08 07:16:01;;;;;;;9.00;4.28;;;;;;;18.00;69.57;99387.97;4975497;28;20086;-77
2023/08/08 07:18:28;;;;;;;6.18;3.22;;;;;;;18.02;69.79;99383.31;4957841;28;20503;-76
2023/08/08 07:20:56;;;;;;;7.13;3.55;;;;;;;18.04;69.54;99386.69;4975317;28;20138;-76
2023/08/08 07:23:23;;;;;;;10.15;4.05;;;;;;;18.10;69.14;99380.78;4975294;28;20061;-77
2023/08/08 07:25:49;;;;;;;7.95;3.47;;;;;;;18.13;69.24;99378.84;4975140;28;20054;-79
2023/08/08 07:28:17;;;;;;;6.18;3.13;;;;;;;18.17;68.96;99378.38;4974727;28;20078;-76
2023/08/08 07:30:44;;;;;;;7.03;3.58;;;;;;;18.20;68.84;99380.75;5143686;23;20046;-80
2023/08/08 07:33:10;;;;;;;9.55;3.55;;;;;;;18.24;68.89;99375.97;4958259;28;20050;-81
2023/08/08 07:35:37;;;;;;;10.32;3.55;;;;;;;18.28;69.33;99377.34;4975134;28;20043;-80
2023/08/08 07:38:03;;;;;;;8.27;3.13;;;;;;;18.33;69.27;99374.25;4974753;28;20129;-81
2023/08/08 07:40:30;;;;;;;7.03;2.95;;;;;;;18.39;69.08;99363.00;4974839;28;20101;-81
2023/08/08 07:42:56;;;;;;;7.68;3.47;;;;;;;18.47;68.53;99375.59;4975024;28;20138;-81
2023/08/08 07:45:23;;;;;;;10.15;3.25;;;;;;;18.51;68.30;99355.66;4975085;28;20086;-80
2023/08/08 07:47:49;;;;;;;8.15;2.90;;;;;;;18.56;68.08;99357.88;4974560;28;20507;-80
2023/08/08 07:50:16;;;;;;;7.40;2.80;;;;;;;18.58;68.02;99351.41;4975274;28;20050;-81
2023/08/08 07:52:43;;;;;;;7.38;2.42;;;;;;;18.65;67.66;99364.13;4974155;28;20054;-81
2023/08/08 07:55:09;;;;;;;6.57;2.60;;;;;;;18.70;67.81;99345.88;4974692;28;20090;-80
2023/08/08 07:57:36;;;;;;;6.30;2.63;;;;;;;18.75;67.12;99359.56;4974645;28;20046;-80
2023/08/08 08:00:09;;;;;;;6.47;2.08;;;;;;;18.81;66.30;99350.13;4974757;28;20043;-81
2023/08/08 08:02:36;;;;;;;6.20;2.47;;;;;;;18.85;65.96;99346.19;4957635;28;20057;-81
2023/08/08 08:05:05;;;;;;;6.45;2.22;;;;;;;18.86;65.70;99332.69;4974659;28;20062;-81
2023/08/08 08:07:32;;;;;;;5.50;1.90;;;;;;;18.88;65.58;99333.38;4957024;28;20046;-81
2023/08/08 08:09:58;;;;;;;8.85;2.30;;;;;;;18.93;65.01;99335.59;4974389;28;20546;-80
2023/08/08 08:12:25;;;;;;;3.28;1.55;;;;;;;18.96;64.90;99335.31;4974621;28;20078;-80
2023/08/08 08:14:52;;;;;;;4.60;1.67;;;;;;;19.02;64.63;99341.81;4974456;28;20078;-81
2023/08/08 08:17:18;;;;;;;4.45;1.92;;;;;;;19.08;64.42;99340.41;4974110;28;20055;-80
2023/08/08 08:19:45;;;;;;;5.45;1.88;;;;;;;19.13;64.36;99340.78;4974368;28;20134;-81
2023/08/08 08:22:11;;;;;;;4.05;2.10;;;;;;;19.19;64.43;99342.00;4974093;28;20501;-81
2023/08/08 08:24:38;;;;;;;7.20;2.38;;;;;;;19.23;63.73;99341.56;4974411;28;20043;-83
2023/08/08 08:27:05;;;;;;;5.60;1.88;;;;;;;19.25;63.39;99352.06;4974136;28;20542;-81
2023/08/08 08:29:32;;;;;;;7.15;1.98;;;;;;;19.26;62.97;99345.75;4974216;28;20042;-81
2023/08/08 08:31:59;;;;;;;7.05;2.15;;;;;;;19.27;63.19;99347.41;4974232;28;20050;-81
2023/08/08 08:34:26;;;;;;;8.35;2.25;;;;;;;19.27;63.18;99334.91;4974142;28;20081;-82
2023/08/08 08:36:52;;;;;;;3.65;1.65;;;;;;;19.31;62.84;99351.44;4973624;28;20046;-81
2023/08/08 08:39:19;;;;;;;2.42;1.40;;;;;;;19.31;62.37;99346.13;4973920;28;20435;-81
2023/08/08 08:41:49;;;;;;;4.13;1.67;;;;;;;19.31;61.09;99355.94;4973950;28;20174;-82
2023/08/08 08:44:21;;;;;;;4.50;1.88;;;;;;;19.30;61.14;99354.28;4973884;28;20050;-81
2023/08/08 08:46:49;;;;;;;4.37;1.53;;;;;;;19.33;62.41;99346.78;4973849;28;20047;-80
2023/08/08 08:49:18;;;;;;;4.88;1.75;;;;;;;19.34;62.22;99344.97;4973728;28;20275;-80
2023/08/08 08:51:44;;;;;;;4.20;1.77;;;;;;;19.34;62.27;99355.63;4973886;28;20054;-81
2023/08/08 08:54:11;;;;;;;5.93;1.70;;;;;;;19.32;62.15;99347.78;4973654;28;20559;-83
2023/08/08 08:56:38;;;;;;;6.32;1.73;;;;;;;19.31;62.35;99346.13;4973562;28;20546;-80
2023/08/08 08:59:04;;;;;;;5.63;1.92;;;;;;;19.35;62.75;99346.63;4956399;28;20157;-80
2023/08/08 09:01:32;;;;;;;5.22;1.60;;;;;;;19.39;62.55;99340.84;4956205;28;20125;-81
2023/08/08 09:03:59;;;;;;;2.45;1.50;;;;;;;19.47;63.34;99332.03;4972389;28;20046;-79
2023/08/08 09:06:26;;;;;;;4.53;1.48;;;;;;;19.57;62.45;99342.63;4973141;28;20089;-81
2023/08/08 09:08:53;;;;;;;4.22;1.70;;;;;;;19.66;62.15;99339.00;4973389;28;20121;-79
2023/08/08 09:11:32;;;;;;;4.88;1.45;;;;;;;19.75;61.71;99339.06;4973352;28;20054;-80
2023/08/08 09:14:00;;;;;;;2.85;1.42;;;;;;;19.81;60.96;99333.09;4973195;28;20439;-80
2023/08/08 09:16:26;;;;;;;5.97;1.73;;;;;;;19.88;62.16;99334.13;4955616;28;20046;-80
2023/08/08 09:18:53;;;;;;;5.20;1.52;;;;;;;19.96;61.26;99321.81;4973313;28;20050;-80
2023/08/08 09:21:19;;;;;;;4.00;2.05;;;;;;;20.03;60.45;99330.88;4973099;28;20134;-80
2023/08/08 09:23:46;;;;;;;4.22;1.55;;;;;;;20.10;60.52;99323.91;4973232;28;20094;-82
2023/08/08 09:26:16;;;;;;;2.88;1.60;;;;;;;20.16;60.73;99336.66;4973141;28;20126;-80
2023/08/08 09:28:42;;;;;;;5.13;1.60;;;;;;;20.25;60.02;99336.66;4972574;28;20053;-81
2023/08/08 09:31:09;;;;;;;2.78;1.52;;;;;;;20.34;59.61;99332.19;4973131;28;20460;-81
2023/08/08 09:33:38;;;;;;;3.47;1.60;;;;;;;20.39;59.19;99333.38;4972996;28;20047;-80
2023/08/08 09:36:05;;;;;;;7.60;1.63;;;;;;;20.50;59.60;99328.72;4972653;28;20581;-80
2023/08/08 09:38:32;;;;;;;8.35;1.75;;;;;;;20.56;59.02;99320.06;4972713;28;20058;-80
2023/08/08 09:40:58;;;;;;;4.20;1.45;;;;;;;20.62;58.07;99329.25;4972580;28;20082;-80
2023/08/08 09:43:25;;;;;;;3.80;1.50;;;;;;;20.65;57.49;99329.78;4972670;28;20154;-81
2023/08/08 09:45:51;;;;;;;3.45;1.23;;;;;;;20.64;57.90;99336.09;4972834;28;20042;-79
2023/08/08 09:48:19;;;;;;;3.83;1.50;;;;;;;20.62;56.93;99330.09;4972789;28;20042;-81
2023/08/08 09:50:46;;;;;;;4.53;1.40;;;;;;;20.59;57.37;99322.41;4972693;28;20125;-81
2023/08/08 09:53:13;;;;;;;4.40;1.45;;;;;;;20.57;57.26;99322.56;4972657;28;20082;-81
2023/08/08 09:55:40;;;;;;;4.00;1.60;;;;;;;20.59;56.95;99334.94;4972579;28;20047;-81
2023/08/08 09:58:08;;;;;;;5.85;1.42;;;;;;;20.57;56.98;99324.41;4972046;28;20093;-81
2023/08/08 10:00:36;;;;;;;3.33;1.38;;;;;;;20.56;56.47;99336.13;4972308;28;20475;-80
2023/08/08 10:03:03;;;;;;;4.57;1.27;;;;;;;20.51;56.03;99331.25;4972706;28;20416;-80
2023/08/08 10:05:30;;;;;;;2.80;1.20;;;;;;;20.48;56.02;99338.75;4972470;28;20070;-80
2023/08/08 10:07:57;;;;;;;2.30;1.08;;;;;;;20.41;56.11;99334.06;4972099;28;20055;-80
2023/08/08 10:10:24;;;;;;;2.28;1.15;;;;;;;20.36;56.67;99323.00;4972303;28;20093;-80
2023/08/08 10:12:52;;;;;;;3.03;1.00;;;;;;;20.34;56.98;99330.38;4972239;28;20101;-80
2023/08/08 10:15:18;;;;;;;3.28;1.20;;;;;;;20.37;57.26;99345.25;4955036;28;20081;-83
2023/08/08 10:17:45;;;;;;;3.03;1.08;;;;;;;20.44;57.38;99338.22;4972225;28;20057;-81
2023/08/08 10:20:12;;;;;;;3.97;1.30;;;;;;;20.49;57.90;99338.59;4972237;28;20472;-80
2023/08/08 10:22:44;;;;;;;4.07;1.20;;;;;;;20.56;55.96;99333.44;4972138;28;20043;-80
2023/08/08 10:25:43;;;;;;;3.42;1.10;;;;;;;20.60;55.81;99345.50;4972196;28;20101;-79
2023/08/08 10:28:13;;;;;;;2.45;1.00;;;;;;;20.68;56.15;99334.78;4971678;28;20051;-81
2023/08/08 10:30:54;;;;;;;3.65;1.23;;;;;;;20.65;55.19;99342.31;4972443;28;20133;-81
2023/08/08 10:33:39;;;;;;;3.78;1.20;;;;;;;20.57;54.41;99343.94;4972138;28;20455;-80
2023/08/08 10:36:07;;;;;;;3.83;1.17;;;;;;;20.53;55.54;99333.75;4972161;28;20054;-82
2023/08/08 10:38:44;;;;;;;1.48;0.95;;;;;;;20.43;55.16;99337.41;4971939;28;20079;-80
2023/08/08 10:41:12;;;;;;;2.88;1.10;;;;;;;20.40;56.08;99328.84;4972113;28;20046;-81
2023/08/08 10:43:50;;;;;;;3.95;1.45;;;;;;;20.33;54.84;99336.69;4972025;28;20559;-81
2023/08/08 10:46:24;;;;;;;6.72;1.60;;;;;;;20.35;55.30;99336.53;4971943;28;20102;-81
2023/08/08 10:48:52;;;;;;;4.80;1.85;;;;;;;20.37;56.54;99334.56;4972337;28;20051;-82
2023/08/08 10:51:19;;;;;;;2.92;1.10;;;;;;;20.39;56.71;99337.88;4972196;28;20130;-82
2023/08/08 10:53:46;;;;;;;4.18;1.20;;;;;;;20.41;56.68;99350.09;4972259;28;20093;-81
2023/08/08 10:56:14;;;;;;;4.55;1.30;;;;;;;20.43;56.31;99350.78;4972016;28;20150;-81
2023/08/08 10:58:46;;;;;;;3.10;1.40;;;;;;;20.46;56.31;99348.78;4971655;28;20047;-80
2023/08/08 11:01:14;;;;;;;3.20;1.27;;;;;;;20.46;55.98;99346.09;4971896;28;20130;-81
2023/08/08 11:03:41;;;;;;;2.55;1.08;;;;;;;20.41;55.48;99350.09;4972120;28;20042;-80
2023/08/08 11:06:10;;;;;;;3.67;1.23;;;;;;;20.33;54.98;99347.38;4971961;28;20047;-81
2023/08/08 11:08:38;;;;;;;3.55;1.30;;;;;;;20.27;55.54;99358.72;4971724;28;20055;-80
2023/08/08 11:11:06;;;;;;;4.00;1.50;;;;;;;20.14;56.66;99380.53;4954924;28;20069;-80
2023/08/08 11:13:33;;;;;;;3.40;1.40;;;;;;;19.98;56.81;99370.56;4972045;28;20069;-81
2023/08/08 11:16:01;;;;;;;2.17;1.30;;;;;;;19.72;57.42;99366.06;4954590;28;20511;-81
2023/08/08 11:18:28;;;;;;;4.70;1.42;;;;;;;19.45;59.15;99370.56;4971600;28;20380;-80
2023/08/08 11:20:55;;;;;;;2.75;1.27;;;;;;;19.24;60.53;99366.38;4971859;28;20058;-80
2023/08/08 11:23:38;;;;;;;2.72;0.90;;;;;;;19.09;61.47;99366.09;4971701;28;20755;-78
2023/08/08 11:26:05;;;;;;;3.30;1.00;;;;;;;18.99;62.04;99348.31;4971937;28;20051;-77
2023/08/08 11:28:35;;;;;;;2.00;1.17;;;;;;;18.98;64.07;99348.44;4957858;28;20231;-83
2023/08/08 11:31:01;;;;;;;2.75;0.90;;;;;;;19.11;67.08;99340.94;4975310;28;20399;-80
2023/08/08 11:33:28;;;;;;;3.20;1.00;;;;;;;19.43;68.86;99348.53;4958021;28;20446;-81
2023/08/08 11:35:56;;;;;;;4.03;1.10;;;;;;;19.85;68.49;99342.47;4975159;28;20149;-79
2023/08/08 11:38:23;;;;;;;5.30;1.27;;;;;;;20.31;68.31;99336.03;4975042;28;20109;-81
2023/08/08 11:40:52;;;;;;;3.05;1.10;;;;;;;20.80;68.56;99332.66;4975216;28;20132;-81
2023/08/08 11:43:19;;;;;;;5.28;1.10;;;;;;;21.29;66.39;99338.22;4975017;28;20073;-81
2023/08/08 11:45:49;;;;;;;4.75;1.00;;;;;;;21.75;64.06;99321.59;4974882;28;20043;-79